sensor_id;sensor_type;location;lat;lon;timestamp;pressure;altitude;pressure_sealevel;temperature;humidity
55263;BME280;41125;48.752;9.168;2023-08-08T00:00:12;97037.84;;;12.34;79.50
55263;BME280;41125;48.752;9.168;2023-08-08T00:00:43;97038.66;;;12.35;79.85
55263;BME280;41125;48.752;9.168;2023-08-08T00:01:14;97037.06;;;12.34;79.16
55263;BME280;41125;48.752;9.168;2023-08-08T00:01:45;97037.06;;;12.34;79.19
55263;BME280;41125;48.752;9.168;2023-08-08T00:02:18;97030.00;;;12.33;79.14
55263;BME280;41125;48.752;9.168;2023-08-08T00:02:49;97038.97;;;12.33;79.38
55263;BME280;41125;48.752;9.168;2023-08-08T00:03:24;97034.84;;;12.36;79.53
55263;BME280;41125;48.752;9.168;2023-08-08T00:03:55;97031.00;;;12.37;79.64
55263;BME280;41125;48.752;9.168;2023-08-08T00:04:26;97037.25;;;12.37;79.39
55263;BME280;41125;48.752;9.168;2023-08-08T00:04:57;97032.62;;;12.38;79.53
55263;BME280;41125;48.752;9.168;2023-08-08T00:05:28;97040.50;;;12.39;79.31
55263;BME280;41125;48.752;9.168;2023-08-08T00:06:00;97035.84;;;12.40;79.37
55263;BME280;41125;48.752;9.168;2023-08-08T00:06:31;97033.94;;;12.40;78.49
55263;BME280;41125;48.752;9.168;2023-08-08T00:07:06;97031.22;;;12.40;78.09
55263;BME280;41125;48.752;9.168;2023-08-08T00:07:37;97032.03;;;12.41;78.38
55263;BME280;41125;48.752;9.168;2023-08-08T00:08:09;97032.75;;;12.47;79.11
55263;BME280;41125;48.752;9.168;2023-08-08T00:08:41;97038.38;;;12.50;79.14
55263;BME280;41125;48.752;9.168;2023-08-08T00:09:15;97031.00;;;12.51;78.97
55263;BME280;41125;48.752;9.168;2023-08-08T00:09:49;97033.72;;;12.51;78.96
55263;BME280;41125;48.752;9.168;2023-08-08T00:10:21;97033.41;;;12.52;78.83
55263;BME280;41125;48.752;9.168;2023-08-08T00:10:52;97040.47;;;12.53;78.84
55263;BME280;41125;48.752;9.168;2023-08-08T00:11:23;97034.34;;;12.61;78.40
55263;BME280;41125;48.752;9.168;2023-08-08T00:11:55;97033.22;;;12.62;77.78
55263;BME280;41125;48.752;9.168;2023-08-08T00:12:29;97037.06;;;12.61;77.80
55263;BME280;41125;48.752;9.168;2023-08-08T00:13:00;97040.91;;;12.60;77.89
55263;BME280;41125;48.752;9.168;2023-08-08T00:13:32;97032.44;;;12.62;78.54
55263;BME280;41125;48.752;9.168;2023-08-08T00:14:04;97040.28;;;12.63;78.14
55263;BME280;41125;48.752;9.168;2023-08-08T00:14:35;97038.69;;;12.62;77.35
55263;BME280;41125;48.752;9.168;2023-08-08T00:15:07;97032.44;;;12.62;77.42
55263;BME280;41125;48.752;9.168;2023-08-08T00:15:39;97042.72;;;12.65;78.60
55263;BME280;41125;48.752;9.168;2023-08-08T00:16:11;97034.25;;;12.66;78.41
55263;BME280;41125;48.752;9.168;2023-08-08T00:16:43;97043.22;;;12.67;78.47
55263;BME280;41125;48.752;9.168;2023-08-08T00:17:15;97034.25;;;12.66;78.20
55263;BME280;41125;48.752;9.168;2023-08-08T00:17:46;97038.59;;;12.67;78.09
55263;BME280;41125;48.752;9.168;2023-08-08T00:18:17;97037.19;;;12.70;78.81
55263;BME280;41125;48.752;9.168;2023-08-08T00:18:49;97037.69;;;12.72;78.29
55263;BME280;41125;48.752;9.168;2023-08-08T00:19:21;97035.47;;;12.74;77.85
55263;BME280;41125;48.752;9.168;2023-08-08T00:19:52;97040.09;;;12.73;77.89
55263;BME280;41125;48.752;9.168;2023-08-08T00:20:23;97037.28;;;12.79;77.97
55263;BME280;41125;48.752;9.168;2023-08-08T00:20:54;97040.50;;;12.81;77.44
55263;BME280;41125;48.752;9.168;2023-08-08T00:21:26;97041.78;;;12.83;77.61
55263;BME280;41125;48.752;9.168;2023-08-08T00:21:57;97050.47;;;12.85;77.38
55263;BME280;41125;48.752;9.168;2023-08-08T00:22:29;97042.28;;;12.85;77.30
55263;BME280;41125;48.752;9.168;2023-08-08T00:23:01;97044.72;;;12.87;77.71
55263;BME280;41125;48.752;9.168;2023-08-08T00:23:32;97044.09;;;12.90;77.44
55263;BME280;41125;48.752;9.168;2023-08-08T00:24:04;97036.44;;;12.92;77.50
55263;BME280;41125;48.752;9.168;2023-08-08T00:24:36;97041.38;;;12.90;77.09
55263;BME280;41125;48.752;9.168;2023-08-08T00:25:07;97042.09;;;12.95;76.60
55263;BME280;41125;48.752;9.168;2023-08-08T00:25:40;97044.00;;;12.95;76.10
55263;BME280;41125;48.752;9.168;2023-08-08T00:26:12;97043.50;;;12.93;76.08
55263;BME280;41125;48.752;9.168;2023-08-08T00:26:43;97045.72;;;12.91;75.93
55263;BME280;41125;48.752;9.168;2023-08-08T00:27:15;97046.22;;;12.93;76.96
55263;BME280;41125;48.752;9.168;2023-08-08T00:27:46;97042.09;;;12.95;76.73
55263;BME280;41125;48.752;9.168;2023-08-08T00:28:18;97045.13;;;12.94;76.67
55263;BME280;41125;48.752;9.168;2023-08-08T00:28:49;97044.63;;;12.92;76.72
55263;BME280;41125;48.752;9.168;2023-08-08T00:29:20;97043.50;;;12.93;76.45
55263;BME280;41125;48.752;9.168;2023-08-08T00:29:52;97045.94;;;12.94;76.76
55263;BME280;41125;48.752;9.168;2023-08-08T00:30:24;97041.28;;;12.95;76.87
55263;BME280;41125;48.752;9.168;2023-08-08T00:30:56;97040.69;;;12.98;76.20
55263;BME280;41125;48.752;9.168;2023-08-08T00:31:27;97036.53;;;13.00;76.53
55263;BME280;41125;48.752;9.168;2023-08-08T00:31:58;97038.16;;;13.01;75.67
55263;BME280;41125;48.752;9.168;2023-08-08T00:32:29;97033.00;;;13.00;75.66
55263;BME280;41125;48.752;9.168;2023-08-08T00:33:01;97034.63;;;13.01;75.60
55263;BME280;41125;48.752;9.168;2023-08-08T00:33:32;97036.03;;;12.98;75.22
55263;BME280;41125;48.752;9.168;2023-08-08T00:34:07;97039.06;;;12.97;75.17
55263;BME280;41125;48.752;9.168;2023-08-08T00:34:38;97039.66;;;12.94;76.34
55263;BME280;41125;48.752;9.168;2023-08-08T00:35:10;97040.78;;;12.93;76.02
55263;BME280;41125;48.752;9.168;2023-08-08T00:35:44;97038.56;;;12.95;76.76
55263;BME280;41125;48.752;9.168;2023-08-08T00:36:16;97041.78;;;12.97;76.38
55263;BME280;41125;48.752;9.168;2023-08-08T00:36:48;97040.69;;;12.98;76.47
55263;BME280;41125;48.752;9.168;2023-08-08T00:37:20;97034.13;;;12.99;76.49
55263;BME280;41125;48.752;9.168;2023-08-08T00:37:51;97046.13;;;12.98;76.47
55263;BME280;41125;48.752;9.168;2023-08-08T00:38:22;97039.56;;;12.99;76.38
55263;BME280;41125;48.752;9.168;2023-08-08T00:38:54;97036.84;;;12.99;76.44
55263;BME280;41125;48.752;9.168;2023-08-08T00:39:25;97040.06;;;13.01;76.39
55263;BME280;41125;48.752;9.168;2023-08-08T00:39:56;97038.47;;;13.00;76.28
55263;BME280;41125;48.752;9.168;2023-08-08T00:40:28;97034.63;;;13.01;76.16
55263;BME280;41125;48.752;9.168;2023-08-08T00:40:59;97040.56;;;13.03;76.78
55263;BME280;41125;48.752;9.168;2023-08-08T00:41:34;97037.84;;;13.03;76.53
55263;BME280;41125;48.752;9.168;2023-08-08T00:42:06;97041.28;;;13.08;76.32
55263;BME280;41125;48.752;9.168;2023-08-08T00:42:37;97039.06;;;13.11;76.20
55263;BME280;41125;48.752;9.168;2023-08-08T00:43:08;97036.03;;;13.12;76.04
55263;BME280;41125;48.752;9.168;2023-08-08T00:43:39;97041.47;;;13.12;75.85
55263;BME280;41125;48.752;9.168;2023-08-08T00:44:10;97036.63;;;13.09;75.95
55263;BME280;41125;48.752;9.168;2023-08-08T00:44:42;97035.31;;;13.06;75.86
55263;BME280;41125;48.752;9.168;2023-08-08T00:45:13;97035.63;;;13.05;76.30
55263;BME280;41125;48.752;9.168;2023-08-08T00:45:44;97034.03;;;13.04;76.21
55263;BME280;41125;48.752;9.168;2023-08-08T00:46:21;97027.25;;;13.01;76.52
55263;BME280;41125;48.752;9.168;2023-08-08T00:46:55;97031.09;;;13.00;76.44
55263;BME280;41125;48.752;9.168;2023-08-08T00:47:26;97041.19;;;13.00;76.29
55263;BME280;41125;48.752;9.168;2023-08-08T00:47:58;97031.41;;;12.99;76.80
55263;BME280;41125;48.752;9.168;2023-08-08T00:48:31;97028.16;;;12.97;76.61
55263;BME280;41125;48.752;9.168;2023-08-08T00:49:02;97030.41;;;12.95;76.75
55263;BME280;41125;48.752;9.168;2023-08-08T00:49:35;97033.72;;;12.92;76.67
55263;BME280;41125;48.752;9.168;2023-08-08T00:50:09;97032.09;;;12.91;77.02
55263;BME280;41125;48.752;9.168;2023-08-08T00:50:43;97031.59;;;12.89;77.17
55263;BME280;41125;48.752;9.168;2023-08-08T00:51:15;97023.44;;;12.89;77.49
55263;BME280;41125;48.752;9.168;2023-08-08T00:51:49;97023.75;;;12.87;77.34
55263;BME280;41125;48.752;9.168;2023-08-08T00:52:21;97032.22;;;12.86;77.26
55263;BME280;41125;48.752;9.168;2023-08-08T00:52:52;97027.87;;;12.85;77.46
55263;BME280;41125;48.752;9.168;2023-08-08T00:53:24;97032.81;;;12.83;77.59
55263;BME280;41125;48.752;9.168;2023-08-08T00:53:57;97029.28;;;12.82;77.79
55263;BME280;41125;48.752;9.168;2023-08-08T00:54:29;97026.38;;;12.79;77.41
55263;BME280;41125;48.752;9.168;2023-08-08T00:55:02;97029.91;;;12.79;77.72
55263;BME280;41125;48.752;9.168;2023-08-08T00:55:34;97029.63;;;12.81;77.81
55263;BME280;41125;48.752;9.168;2023-08-08T00:56:06;97029.63;;;12.81;78.08
55263;BME280;41125;48.752;9.168;2023-08-08T00:56:38;97028.97;;;12.84;78.34
55263;BME280;41125;48.752;9.168;2023-08-08T00:57:10;97027.06;;;12.84;77.63
55263;BME280;41125;48.752;9.168;2023-08-08T00:57:42;97031.72;;;12.84;77.85
55263;BME280;41125;48.752;9.168;2023-08-08T00:58:15;97030.59;;;12.85;77.84
55263;BME280;41125;48.752;9.168;2023-08-08T00:58:46;97028.97;;;12.84;77.96
55263;BME280;41125;48.752;9.168;2023-08-08T00:59:19;97024.66;;;12.83;78.12
55263;BME280;41125;48.752;9.168;2023-08-08T00:59:51;97023.06;;;12.82;77.66
55263;BME280;41125;48.752;9.168;2023-08-08T01:00:22;97027.38;;;12.83;77.82
55263;BME280;41125;48.752;9.168;2023-08-08T01:00:55;97028.81;;;12.80;77.84
55263;BME280;41125;48.752;9.168;2023-08-08T01:01:28;97024.16;;;12.81;77.97
55263;BME280;41125;48.752;9.168;2023-08-08T01:01:59;97022.56;;;12.80;78.19
55263;BME280;41125;48.752;9.168;2023-08-08T01:02:31;97026.38;;;12.79;78.00
55263;BME280;41125;48.752;9.168;2023-08-08T01:03:03;97019.34;;;12.78;78.13
55263;BME280;41125;48.752;9.168;2023-08-08T01:03:35;97023.16;;;12.77;78.46
55263;BME280;41125;48.752;9.168;2023-08-08T01:04:06;97020.44;;;12.77;78.67
55263;BME280;41125;48.752;9.168;2023-08-08T01:04:38;97024.28;;;12.75;78.03
55263;BME280;41125;48.752;9.168;2023-08-08T01:05:11;97025.38;;;12.74;78.11
55263;BME280;41125;48.752;9.168;2023-08-08T01:05:48;97021.03;;;12.73;78.25
55263;BME280;41125;48.752;9.168;2023-08-08T01:06:45;97016.72;;;12.72;78.15
55263;BME280;41125;48.752;9.168;2023-08-08T01:07:47;97020.22;;;12.73;78.20
55263;BME280;41125;48.752;9.168;2023-08-08T01:08:23;97019.44;;;12.72;78.22
55263;BME280;41125;48.752;9.168;2023-08-08T01:09:05;97015.28;;;12.75;78.78
55263;BME280;41125;48.752;9.168;2023-08-08T01:09:47;97021.44;;;12.81;78.10
55263;BME280;41125;48.752;9.168;2023-08-08T01:10:29;97017.47;;;12.87;78.10
55263;BME280;41125;48.752;9.168;2023-08-08T01:11:02;97022.94;;;12.87;77.54
55263;BME280;41125;48.752;9.168;2023-08-08T01:11:34;97022.63;;;12.88;77.54
55263;BME280;41125;48.752;9.168;2023-08-08T01:12:09;97015.88;;;12.86;77.29
55263;BME280;41125;48.752;9.168;2023-08-08T01:13:00;97025.16;;;12.85;77.66
55263;BME280;41125;48.752;9.168;2023-08-08T01:13:34;97023.53;;;12.84;77.79
55263;BME280;41125;48.752;9.168;2023-08-08T01:14:08;97019.69;;;12.85;77.75
55263;BME280;41125;48.752;9.168;2023-08-08T01:14:42;97023.53;;;12.84;78.07
55263;BME280;41125;48.752;9.168;2023-08-08T01:15:15;97016.16;;;12.84;78.10
55263;BME280;41125;48.752;9.168;2023-08-08T01:15:48;97019.69;;;12.85;78.23
55263;BME280;41125;48.752;9.168;2023-08-08T01:16:21;97019.69;;;12.85;78.28
55263;BME280;41125;48.752;9.168;2023-08-08T01:16:53;97021.31;;;12.86;78.38
55263;BME280;41125;48.752;9.168;2023-08-08T01:17:28;97019.69;;;12.85;78.13
55263;BME280;41125;48.752;9.168;2023-08-08T01:18:00;97018.09;;;12.84;78.01
55263;BME280;41125;48.752;9.168;2023-08-08T01:18:32;97017.47;;;12.87;77.78
55263;BME280;41125;48.752;9.168;2023-08-08T01:19:04;97015.88;;;12.86;77.54
55263;BME280;41125;48.752;9.168;2023-08-08T01:19:39;97020.81;;;12.84;77.68
55263;BME280;41125;48.752;9.168;2023-08-08T01:20:12;97024.66;;;12.83;77.96
55263;BME280;41125;48.752;9.168;2023-08-08T01:20:48;97014.91;;;12.82;77.91
55263;BME280;41125;48.752;9.168;2023-08-08T01:21:21;97020.34;;;12.82;77.97
55263;BME280;41125;48.752;9.168;2023-08-08T01:21:54;97018.72;;;12.81;78.12
55263;BME280;41125;48.752;9.168;2023-08-08T01:22:35;97015.50;;;12.79;78.27
55263;BME280;41125;48.752;9.168;2023-08-08T01:23:23;97020.94;;;12.79;78.56
55263;BME280;41125;48.752;9.168;2023-08-08T01:24:19;97022.06;;;12.78;78.74
55263;BME280;41125;48.752;9.168;2023-08-08T01:24:53;97024.78;;;12.78;78.58
55263;BME280;41125;48.752;9.168;2023-08-08T01:25:34;97023.16;;;12.77;78.67
55263;BME280;41125;48.752;9.168;2023-08-08T01:26:06;97027.00;;;12.75;78.59
55263;BME280;41125;48.752;9.168;2023-08-08T01:26:38;97014.50;;;12.74;78.65
55263;BME280;41125;48.752;9.168;2023-08-08T01:27:09;97028.91;;;12.75;79.10
55263;BME280;41125;48.752;9.168;2023-08-08T01:27:43;97023.75;;;12.73;79.02
55263;BME280;41125;48.752;9.168;2023-08-08T01:28:15;97024.88;;;12.72;78.84
55263;BME280;41125;48.752;9.168;2023-08-08T01:28:47;97020.53;;;12.71;78.91
55263;BME280;41125;48.752;9.168;2023-08-08T01:29:18;97023.75;;;12.73;79.66
55263;BME280;41125;48.752;9.168;2023-08-08T01:29:52;97025.38;;;12.74;79.54
55263;BME280;41125;48.752;9.168;2023-08-08T01:30:26;97015.28;;;12.75;79.08
55263;BME280;41125;48.752;9.168;2023-08-08T01:30:57;97021.56;;;12.75;79.10
55263;BME280;41125;48.752;9.168;2023-08-08T01:31:30;97014.50;;;12.74;79.24
55263;BME280;41125;48.752;9.168;2023-08-08T01:32:01;97015.59;;;12.73;79.59
55263;BME280;41125;48.752;9.168;2023-08-08T01:32:32;97011.75;;;12.74;79.89
55263;BME280;41125;48.752;9.168;2023-08-08T01:33:06;97014.50;;;12.74;79.72
55263;BME280;41125;48.752;9.168;2023-08-08T01:33:37;97014.50;;;12.74;79.63
55263;BME280;41125;48.752;9.168;2023-08-08T01:34:09;97011.25;;;12.72;79.29
55263;BME280;41125;48.752;9.168;2023-08-08T01:34:40;97016.19;;;12.70;79.67
55263;BME280;41125;48.752;9.168;2023-08-08T01:35:12;97014.28;;;12.71;79.42
55263;BME280;41125;48.752;9.168;2023-08-08T01:35:50;97008.03;;;12.70;80.07
55263;BME280;41125;48.752;9.168;2023-08-08T01:36:44;97013.97;;;12.72;79.99
55263;BME280;41125;48.752;9.168;2023-08-08T01:37:25;97002.19;;;12.77;80.49
55263;BME280;41125;48.752;9.168;2023-08-08T01:38:09;97009.53;;;12.77;79.37
55263;BME280;41125;48.752;9.168;2023-08-08T01:38:44;97007.94;;;12.75;79.48
55263;BME280;41125;48.752;9.168;2023-08-08T01:39:25;97005.22;;;12.75;79.66
55263;BME280;41125;48.752;9.168;2023-08-08T01:39:58;97000.06;;;12.74;79.47
55263;BME280;41125;48.752;9.168;2023-08-08T01:40:31;97000.38;;;12.72;79.35
55263;BME280;41125;48.752;9.168;2023-08-08T01:41:04;97000.38;;;12.72;79.57
55263;BME280;41125;48.752;9.168;2023-08-08T01:41:37;97005.81;;;12.72;79.41
55263;BME280;41125;48.752;9.168;2023-08-08T01:42:10;97001.97;;;12.73;79.67
55263;BME280;41125;48.752;9.168;2023-08-08T01:42:45;97007.44;;;12.73;79.32
55263;BME280;41125;48.752;9.168;2023-08-08T01:43:18;97002.19;;;12.77;79.95
55263;BME280;41125;48.752;9.168;2023-08-08T01:43:50;97003.81;;;12.78;79.24
55263;BME280;41125;48.752;9.168;2023-08-08T01:44:22;96998.66;;;12.77;79.39
55263;BME280;41125;48.752;9.168;2023-08-08T01:44:55;96999.75;;;12.75;79.38
55263;BME280;41125;48.752;9.168;2023-08-08T01:45:27;97002.50;;;12.75;79.54
55263;BME280;41125;48.752;9.168;2023-08-08T01:45:59;96998.16;;;12.74;79.33
55263;BME280;41125;48.752;9.168;2023-08-08T01:46:33;97002.78;;;12.74;79.57
55263;BME280;41125;48.752;9.168;2023-08-08T01:47:06;96999.56;;;12.72;79.70
55263;BME280;41125;48.752;9.168;2023-08-08T01:47:38;97003.09;;;12.72;79.83
55263;BME280;41125;48.752;9.168;2023-08-08T01:48:10;97004.72;;;12.73;79.65
55263;BME280;41125;48.752;9.168;2023-08-08T01:48:45;96996.53;;;12.73;79.79
55263;BME280;41125;48.752;9.168;2023-08-08T01:49:17;96996.53;;;12.73;79.58
55263;BME280;41125;48.752;9.168;2023-08-08T01:49:49;97001.19;;;12.73;79.65
55263;BME280;41125;48.752;9.168;2023-08-08T01:50:20;96997.66;;;12.72;79.70
55263;BME280;41125;48.752;9.168;2023-08-08T01:50:52;97000.38;;;12.72;79.92
55263;BME280;41125;48.752;9.168;2023-08-08T01:51:27;97001.19;;;12.73;79.99
55263;BME280;41125;48.752;9.168;2023-08-08T01:51:59;96998.16;;;12.74;80.62
55263;BME280;41125;48.752;9.168;2023-08-08T01:52:30;97006.81;;;12.77;80.71
55263;BME280;41125;48.752;9.168;2023-08-08T01:53:05;97001.88;;;12.79;80.75
55263;BME280;41125;48.752;9.168;2023-08-08T01:53:36;97004.59;;;12.79;80.67
55263;BME280;41125;48.752;9.168;2023-08-08T01:54:07;96997.56;;;12.78;80.42
55263;BME280;41125;48.752;9.168;2023-08-08T01:54:40;97003.00;;;12.78;80.55
55263;BME280;41125;48.752;9.168;2023-08-08T01:55:16;96994.31;;;12.75;80.48
55263;BME280;41125;48.752;9.168;2023-08-08T01:55:51;96998.97;;;12.75;80.47
55263;BME280;41125;48.752;9.168;2023-08-08T01:56:23;97001.38;;;12.77;80.51
55263;BME280;41125;48.752;9.168;2023-08-08T01:56:54;96994.31;;;12.75;80.30
55263;BME280;41125;48.752;9.168;2023-08-08T01:57:25;96994.31;;;12.75;80.20
55263;BME280;41125;48.752;9.168;2023-08-08T01:57:57;96993.50;;;12.75;80.41
55263;BME280;41125;48.752;9.168;2023-08-08T01:58:28;96998.34;;;12.78;80.65
55263;BME280;41125;48.752;9.168;2023-08-08T01:58:59;97010.06;;;12.79;80.25
55263;BME280;41125;48.752;9.168;2023-08-08T01:59:31;96993.72;;;12.79;80.45
55263;BME280;41125;48.752;9.168;2023-08-08T02:00:02;96999.47;;;12.77;80.06
55263;BME280;41125;48.752;9.168;2023-08-08T02:00:35;96998.34;;;12.78;80.27
55263;BME280;41125;48.752;9.168;2023-08-08T02:01:07;97005.13;;;12.81;80.76
55263;BME280;41125;48.752;9.168;2023-08-08T02:01:39;96996.94;;;12.81;81.17
55263;BME280;41125;48.752;9.168;2023-08-08T02:02:12;97009.44;;;12.82;80.79
55263;BME280;41125;48.752;9.168;2023-08-08T02:02:43;97003.88;;;12.87;80.86
55263;BME280;41125;48.752;9.168;2023-08-08T02:03:14;97004.38;;;12.89;79.48
55263;BME280;41125;48.752;9.168;2023-08-08T02:03:46;97005.47;;;12.88;79.16
55263;BME280;41125;48.752;9.168;2023-08-08T02:04:17;97003.88;;;12.87;78.96
55263;BME280;41125;48.752;9.168;2023-08-08T02:04:48;97006.59;;;12.87;79.67
55263;BME280;41125;48.752;9.168;2023-08-08T02:05:20;97001.94;;;12.87;79.62
55263;BME280;41125;48.752;9.168;2023-08-08T02:05:53;97005.47;;;12.88;79.72
55263;BME280;41125;48.752;9.168;2023-08-08T02:06:24;97004.97;;;12.86;80.24
55263;BME280;41125;48.752;9.168;2023-08-08T02:06:55;96994.09;;;12.86;80.40
55263;BME280;41125;48.752;9.168;2023-08-08T02:07:27;96991.66;;;12.84;79.94
55263;BME280;41125;48.752;9.168;2023-08-08T02:07:59;97002.88;;;12.83;79.69
55263;BME280;41125;48.752;9.168;2023-08-08T02:08:30;96999.34;;;12.82;79.29
55263;BME280;41125;48.752;9.168;2023-08-08T02:09:01;97003.19;;;12.81;80.05
55263;BME280;41125;48.752;9.168;2023-08-08T02:09:32;96998.56;;;12.82;79.38
55263;BME280;41125;48.752;9.168;2023-08-08T02:10:04;97004.00;;;12.82;79.84
55263;BME280;41125;48.752;9.168;2023-08-08T02:10:35;96998.56;;;12.82;79.67
55263;BME280;41125;48.752;9.168;2023-08-08T02:11:06;97003.19;;;12.81;80.14
55263;BME280;41125;48.752;9.168;2023-08-08T02:11:38;97000.94;;;12.83;80.39
55263;BME280;41125;48.752;9.168;2023-08-08T02:12:09;96985.81;;;12.91;80.53
55263;BME280;41125;48.752;9.168;2023-08-08T02:12:41;97002.34;;;12.94;80.18
55263;BME280;41125;48.752;9.168;2023-08-08T02:13:13;97000.44;;;12.95;80.08
55263;BME280;41125;48.752;9.168;2023-08-08T02:13:44;96996.09;;;12.94;79.80
55263;BME280;41125;48.752;9.168;2023-08-08T02:14:15;96998.81;;;12.94;79.97
55263;BME280;41125;48.752;9.168;2023-08-08T02:14:46;96998.31;;;12.92;79.85
55263;BME280;41125;48.752;9.168;2023-08-08T02:15:17;96993.19;;;12.90;79.72
55263;BME280;41125;48.752;9.168;2023-08-08T02:15:49;96996.19;;;12.89;79.81
55263;BME280;41125;48.752;9.168;2023-08-08T02:16:20;96990.25;;;12.87;79.94
55263;BME280;41125;48.752;9.168;2023-08-08T02:16:51;96999.53;;;12.86;79.79
55263;BME280;41125;48.752;9.168;2023-08-08T02:17:22;96994.88;;;12.86;80.18
55263;BME280;41125;48.752;9.168;2023-08-08T02:17:54;96990.25;;;12.87;80.42
55263;BME280;41125;48.752;9.168;2023-08-08T02:18:26;96988.03;;;12.89;80.74
55263;BME280;41125;48.752;9.168;2023-08-08T02:18:58;96985.81;;;12.91;80.04
55263;BME280;41125;48.752;9.168;2023-08-08T02:19:29;96984.19;;;12.90;80.05
55263;BME280;41125;48.752;9.168;2023-08-08T02:20:01;96993.47;;;12.89;79.71
55263;BME280;41125;48.752;9.168;2023-08-08T02:20:34;96989.44;;;12.86;79.73
55263;BME280;41125;48.752;9.168;2023-08-08T02:21:07;96988.63;;;12.86;79.52
55263;BME280;41125;48.752;9.168;2023-08-08T02:21:38;96988.63;;;12.86;79.98
55263;BME280;41125;48.752;9.168;2023-08-08T02:22:09;96990.25;;;12.87;80.36
55263;BME280;41125;48.752;9.168;2023-08-08T02:22:41;96984.81;;;12.87;79.99
55263;BME280;41125;48.752;9.168;2023-08-08T02:23:12;96982.59;;;12.89;80.04
55263;BME280;41125;48.752;9.168;2023-08-08T02:23:43;96985.81;;;12.91;79.90
55263;BME280;41125;48.752;9.168;2023-08-08T02:24:14;96984.19;;;12.90;79.72
55263;BME280;41125;48.752;9.168;2023-08-08T02:24:45;96986.81;;;12.95;79.88
55263;BME280;41125;48.752;9.168;2023-08-08T02:25:17;96979.16;;;12.97;79.74
55263;BME280;41125;48.752;9.168;2023-08-08T02:25:48;96982.97;;;12.96;78.96
55263;BME280;41125;48.752;9.168;2023-08-08T02:26:20;96979.75;;;12.94;78.87
55263;BME280;41125;48.752;9.168;2023-08-08T02:26:51;96984.69;;;12.92;79.01
55263;BME280;41125;48.752;9.168;2023-08-08T02:27:22;96980.66;;;12.89;79.24
55263;BME280;41125;48.752;9.168;2023-08-08T02:27:54;96992.38;;;12.90;79.98
55263;BME280;41125;48.752;9.168;2023-08-08T02:28:25;96986.81;;;12.95;79.29
55263;BME280;41125;48.752;9.168;2023-08-08T02:28:57;96980.25;;;12.96;79.61
55263;BME280;41125;48.752;9.168;2023-08-08T02:29:28;96987.94;;;12.94;78.73
55263;BME280;41125;48.752;9.168;2023-08-08T02:30:00;96983.09;;;12.91;78.82
55263;BME280;41125;48.752;9.168;2023-08-08T02:30:31;96982.59;;;12.89;79.38
55263;BME280;41125;48.752;9.168;2023-08-08T02:31:03;96985.00;;;12.90;79.38
55263;BME280;41125;48.752;9.168;2023-08-08T02:31:36;96985.81;;;12.91;79.40
55263;BME280;41125;48.752;9.168;2023-08-08T02:32:07;96983.59;;;12.93;79.09
55263;BME280;41125;48.752;9.168;2023-08-08T02:32:39;96984.69;;;12.92;78.97
55263;BME280;41125;48.752;9.168;2023-08-08T02:33:10;96984.19;;;12.90;79.02
55263;BME280;41125;48.752;9.168;2023-08-08T02:33:41;96989.03;;;12.93;79.35
55263;BME280;41125;48.752;9.168;2023-08-08T02:34:12;96985.81;;;12.91;78.50
55263;BME280;41125;48.752;9.168;2023-08-08T02:34:46;96978.75;;;12.90;78.58
55263;BME280;41125;48.752;9.168;2023-08-08T02:35:19;96982.59;;;12.89;79.29
55263;BME280;41125;48.752;9.168;2023-08-08T02:35:50;96979.88;;;12.89;79.35
55263;BME280;41125;48.752;9.168;2023-08-08T02:36:21;96988.63;;;12.86;78.98
55263;BME280;41125;48.752;9.168;2023-08-08T02:36:53;96992.47;;;12.85;78.76
55263;BME280;41125;48.752;9.168;2023-08-08T02:37:24;96987.03;;;12.85;78.96
55263;BME280;41125;48.752;9.168;2023-08-08T02:37:56;96985.41;;;12.84;78.94
55263;BME280;41125;48.752;9.168;2023-08-08T02:38:27;96987.97;;;12.80;79.38
55263;BME280;41125;48.752;9.168;2023-08-08T02:38:59;96994.53;;;12.79;79.19
55263;BME280;41125;48.752;9.168;2023-08-08T02:39:30;96988.28;;;12.79;79.41
55263;BME280;41125;48.752;9.168;2023-08-08T02:40:02;96992.09;;;12.78;79.36
55263;BME280;41125;48.752;9.168;2023-08-08T02:40:34;96990.50;;;12.77;79.54
55263;BME280;41125;48.752;9.168;2023-08-08T02:41:05;96993.50;;;12.75;79.82
55263;BME280;41125;48.752;9.168;2023-08-08T02:41:36;96996.53;;;12.73;79.77
55263;BME280;41125;48.752;9.168;2023-08-08T02:42:08;96984.53;;;12.74;80.26
55263;BME280;41125;48.752;9.168;2023-08-08T02:42:39;96996.44;;;12.79;80.61
55263;BME280;41125;48.752;9.168;2023-08-08T02:43:10;96990.19;;;12.78;80.76
55263;BME280;41125;48.752;9.168;2023-08-08T02:43:41;96986.66;;;12.78;79.98
55263;BME280;41125;48.752;9.168;2023-08-08T02:44:13;96989.38;;;12.78;80.02
55263;BME280;41125;48.752;9.168;2023-08-08T02:44:44;96995.12;;;12.76;80.07
55263;BME280;41125;48.752;9.168;2023-08-08T02:45:15;96986.66;;;12.78;80.45
55263;BME280;41125;48.752;9.168;2023-08-08T02:45:46;96991.28;;;12.77;80.39
55263;BME280;41125;48.752;9.168;2023-08-08T02:46:18;96996.75;;;12.77;80.38
55263;BME280;41125;48.752;9.168;2023-08-08T02:46:49;96988.06;;;12.75;80.42
55263;BME280;41125;48.752;9.168;2023-08-08T02:47:20;96986.16;;;12.75;80.41
55263;BME280;41125;48.752;9.168;2023-08-08T02:47:52;96988.06;;;12.75;80.82
55263;BME280;41125;48.752;9.168;2023-08-08T02:48:23;96985.66;;;12.73;80.53
55263;BME280;41125;48.752;9.168;2023-08-08T02:48:54;96987.88;;;12.71;80.80
55263;BME280;41125;48.752;9.168;2023-08-08T02:49:25;96991.69;;;12.70;80.32
55263;BME280;41125;48.752;9.168;2023-08-08T02:49:57;96987.88;;;12.71;81.21
55263;BME280;41125;48.752;9.168;2023-08-08T02:50:28;96988.97;;;12.70;81.36
55263;BME280;41125;48.752;9.168;2023-08-08T02:50:59;96990.91;;;12.70;81.39
55263;BME280;41125;48.752;9.168;2023-08-08T02:51:30;96993.91;;;12.68;81.33
55263;BME280;41125;48.752;9.168;2023-08-08T02:52:05;96983.84;;;12.69;81.72
55263;BME280;41125;48.752;9.168;2023-08-08T02:52:36;96987.97;;;12.66;81.93
55263;BME280;41125;48.752;9.168;2023-08-08T02:53:08;96985.25;;;12.66;82.18